Bishop Sutton, United Kingdom
Current Conditions -  °F | °C
As of 3:20 AM on Saturday 25 Oct 2014 (Local Time) from EGGD Reporting Station
Rain Showers Rain Showers  
Wind Chill: 50°   Ceiling: 2000
Heat Index: 50°   Visibility: 6mi
Dew Point: 46°   Wind: 6mph
Humidity: 87%   Direction: 220°SW
Pressure: 30"   Gusts: NA
Location:  51.37°N, 2.55°W
Report Text: EGGD 250220Z 22005KT 9999 -SHRA BKN020 10/08 Q1016
Loading
Personal Weather Stations






























Interactive Weather Map New forecast layout! Learn more

10-Day Weather Forecast

Advertisements
Track Severe Weather on mobile